Terminal Aerodrome Forecast
Issued by NWS

Home | Current Version | Previous Version | Text Only | Print | Product List | Glossary Off
Versions: 1 2 3 4 5 6 7 8 9 10 11 12 13 14 15 16 17 18 19 20 21 22

000
FTUS43 KICT 291514 AAB
TAFCNU
TAF AMD
KCNU 291514Z 2915/3012 34007KT P6SM SCT025
      TEMPO 2915/2917 BKN025
     FM292200 36007KT P6SM SCT040
     FM300400 07007KT P6SM OVC015=

USA.gov is the U.S. government's official web portal to all federal, state and local government web resources and services.